createdAt,value
2018-11-06T00:01:56.113Z,11.03
2018-11-06T00:04:29.766Z,9.90
2018-11-06T00:06:57.957Z,11.60
2018-11-06T00:09:26.338Z,10.40
2018-11-06T00:11:54.434Z,11.70
2018-11-06T00:14:22.702Z,10.50
2018-11-06T00:16:50.859Z,10.63
2018-11-06T00:19:19.067Z,10.60
2018-11-06T00:21:47.415Z,10.87
2018-11-06T00:24:15.620Z,11.73
2018-11-06T00:26:43.844Z,10.93
2018-11-06T00:29:12.016Z,10.17
2018-11-06T00:31:40.193Z,11.27
2018-11-06T00:34:08.376Z,11.27
2018-11-06T00:36:36.511Z,11.00
2018-11-06T00:39:06.182Z,10.70
2018-11-06T00:41:34.338Z,10.37
2018-11-06T00:44:02.690Z,10.53
2018-11-06T00:46:30.860Z,9.60
2018-11-06T00:48:59.055Z,11.57
2018-11-06T00:51:27.214Z,10.87
2018-11-06T00:53:55.340Z,11.10
2018-11-06T00:56:23.507Z,11.10
2018-11-06T00:58:51.717Z,10.63
2018-11-06T01:01:19.887Z,11.20
2018-11-06T01:03:54.101Z,12.00
2018-11-06T01:06:22.781Z,11.50
2018-11-06T01:08:52.567Z,11.40
2018-11-06T01:11:20.815Z,10.00
2018-11-06T01:13:49.012Z,10.07
2018-11-06T01:16:17.148Z,11.10
2018-11-06T01:18:45.452Z,10.90
2018-11-06T01:21:13.621Z,10.73
2018-11-06T01:23:41.845Z,10.43
2018-11-06T01:26:10.011Z,10.50
2018-11-06T01:28:38.188Z,9.33
2018-11-06T01:31:06.303Z,10.07
2018-11-06T01:33:34.403Z,10.37
2018-11-06T01:36:03.500Z,10.17
2018-11-06T01:38:31.601Z,10.47
2018-11-06T01:40:59.785Z,10.47
2018-11-06T01:43:27.915Z,9.80
2018-11-06T01:45:56.149Z,9.93
2018-11-06T01:48:24.267Z,9.77
2018-11-06T01:50:52.401Z,10.90
2018-11-06T01:53:20.547Z,10.40
2018-11-06T01:55:48.681Z,10.33
2018-11-06T01:58:16.839Z,11.33
2018-11-06T02:00:44.970Z,11.23
2018-11-06T02:03:13.211Z,11.67
2018-11-06T02:05:41.335Z,10.43
2018-11-06T02:08:09.487Z,11.53
2018-11-06T02:10:37.662Z,11.00
2018-11-06T02:13:05.791Z,11.63
2018-11-06T02:15:33.936Z,11.60
2018-11-06T02:18:02.055Z,10.87
2018-11-06T02:20:30.198Z,10.77
2018-11-06T02:22:58.372Z,9.87
2018-11-06T02:25:26.629Z,10.83
2018-11-06T02:27:54.778Z,11.30
2018-11-06T02:30:22.994Z,9.77
2018-11-06T02:32:51.202Z,10.90
2018-11-06T02:35:19.334Z,11.87
2018-11-06T02:37:47.503Z,9.80
2018-11-06T02:40:16.311Z,10.37
2018-11-06T02:42:44.613Z,10.30
2018-11-06T02:45:13.502Z,10.87
2018-11-06T02:47:42.255Z,10.80
2018-11-06T02:50:11.333Z,10.20
2018-11-06T02:52:39.641Z,11.60
2018-11-06T02:55:08.175Z,10.50
2018-11-06T02:57:36.293Z,10.30
2018-11-06T03:00:04.709Z,10.33
2018-11-06T03:02:32.847Z,11.13
2018-11-06T03:05:01.057Z,11.10
2018-11-06T03:07:29.193Z,11.63
2018-11-06T03:09:57.365Z,11.63
2018-11-06T03:12:25.512Z,11.70
2018-11-06T03:14:53.682Z,11.10
2018-11-06T03:17:21.831Z,11.50
2018-11-06T03:19:50.002Z,11.00
2018-11-06T03:22:18.203Z,11.20
2018-11-06T03:24:46.371Z,11.67
2018-11-06T03:27:14.511Z,12.67
2018-11-06T03:29:42.699Z,12.47
2018-11-06T03:32:10.841Z,12.53
2018-11-06T03:34:38.943Z,12.23
2018-11-06T03:37:07.317Z,12.20
2018-11-06T03:39:35.566Z,12.07
2018-11-06T03:42:03.685Z,12.70
2018-11-06T03:44:31.838Z,11.37
2018-11-06T03:46:59.988Z,10.63
2018-11-06T03:49:28.133Z,10.80
2018-11-06T03:51:56.262Z,10.93
2018-11-06T03:54:24.417Z,11.50
2018-11-06T03:56:52.865Z,13.30
2018-11-06T03:59:21.105Z,12.03
2018-11-06T04:01:49.229Z,13.00
2018-11-06T04:04:17.388Z,10.97
2018-11-06T04:06:45.529Z,11.63
2018-11-06T04:09:14.095Z,11.70
2018-11-06T04:11:42.604Z,12.47
2018-11-06T04:14:11.183Z,12.37
2018-11-06T04:16:39.887Z,12.17
2018-11-06T04:19:08.433Z,12.43
2018-11-06T04:21:37.551Z,12.30
2018-11-06T04:24:07.465Z,11.80
2018-11-06T04:26:36.622Z,12.60
2018-11-06T04:29:05.663Z,12.30
2018-11-06T04:31:34.167Z,13.80
2018-11-06T04:34:02.334Z,11.97
2018-11-06T04:36:30.836Z,11.10
2018-11-06T04:38:59.340Z,13.30
2018-11-06T04:41:27.933Z,12.47
2018-11-06T04:43:56.022Z,12.10
2018-11-06T04:46:24.477Z,12.20
2018-11-06T04:48:53.031Z,13.00
2018-11-06T04:51:21.534Z,14.13
2018-11-06T04:53:49.670Z,13.00
2018-11-06T04:56:17.837Z,12.00
2018-11-06T04:58:46.049Z,13.07
2018-11-06T05:01:14.193Z,12.77
2018-11-06T05:03:46.383Z,13.70
2018-11-06T05:06:15.391Z,13.30
2018-11-06T05:08:43.497Z,13.60
2018-11-06T05:11:11.785Z,12.60
2018-11-06T05:13:40.210Z,14.00
2018-11-06T05:16:08.319Z,13.07
2018-11-06T05:18:36.791Z,12.37
2018-11-06T05:21:05.597Z,13.10
2018-11-06T05:23:33.761Z,13.40
2018-11-06T05:26:01.892Z,12.43
2018-11-06T05:28:30.153Z,13.87
2018-11-06T05:30:58.289Z,14.20
2018-11-06T05:33:26.819Z,14.50
2018-11-06T05:35:54.972Z,16.80
2018-11-06T05:38:23.288Z,12.37
2018-11-06T05:41:02.783Z,13.87
2018-11-06T05:43:30.913Z,14.47
2018-11-06T05:45:59.251Z,14.47
2018-11-06T05:48:27.379Z,13.47
2018-11-06T05:50:55.508Z,16.33
2018-11-06T05:53:23.687Z,14.40
2018-11-06T05:55:51.812Z,13.37
2018-11-06T05:58:20.000Z,14.20
2018-11-06T06:00:48.488Z,14.70
2018-11-06T06:03:16.630Z,15.40
2018-11-06T06:05:44.804Z,15.70
2018-11-06T06:08:12.970Z,14.37
2018-11-06T06:10:41.126Z,14.50
2018-11-06T06:13:09.312Z,14.90
2018-11-06T06:15:37.404Z,15.97
2018-11-06T06:18:05.549Z,15.83
2018-11-06T06:20:33.713Z,15.67
2018-11-06T06:23:01.846Z,15.57
2018-11-06T06:25:30.585Z,14.70
2018-11-06T06:27:58.759Z,15.80
2018-11-06T06:30:26.890Z,15.73
2018-11-06T06:32:55.383Z,16.20
2018-11-06T06:35:23.515Z,15.83
2018-11-06T06:37:51.622Z,16.97
2018-11-06T06:40:19.851Z,16.20
2018-11-06T06:42:48.132Z,16.93
2018-11-06T06:45:17.484Z,17.80
2018-11-06T06:47:45.740Z,16.97
2018-11-06T06:50:15.064Z,17.03
2018-11-06T06:52:43.598Z,18.20
2018-11-06T06:55:12.959Z,18.60
2018-11-06T06:57:43.021Z,18.47
2018-11-06T07:00:13.242Z,16.93
2018-11-06T07:02:41.797Z,18.50
2018-11-06T07:05:14.179Z,18.07
2018-11-06T07:07:43.083Z,16.40
2018-11-06T07:10:13.200Z,17.27
2018-11-06T07:12:42.502Z,18.60
2018-11-06T07:15:12.867Z,15.60
2018-11-06T07:17:41.211Z,16.90
2018-11-06T07:20:12.056Z,16.93
2018-11-06T07:22:40.454Z,18.00
2018-11-06T07:25:09.712Z,18.50
2018-11-06T07:27:37.977Z,18.47
2018-11-06T07:30:09.608Z,17.40
2018-11-06T07:32:38.060Z,17.90
2018-11-06T07:35:06.940Z,17.33
2018-11-06T07:37:34.926Z,17.83
2018-11-06T07:40:03.525Z,17.10
2018-11-06T07:42:31.692Z,18.33
2018-11-06T07:44:59.890Z,18.10
2018-11-06T07:47:28.462Z,18.60
2018-11-06T07:49:56.669Z,17.83
2018-11-06T07:52:24.727Z,17.03
2018-11-06T07:54:53.042Z,18.17
2018-11-06T07:57:21.278Z,17.43
2018-11-06T07:59:49.652Z,19.03
2018-11-06T08:02:17.946Z,17.67
2018-11-06T08:04:46.047Z,20.70
2018-11-06T08:07:14.246Z,16.97
2018-11-06T08:09:42.432Z,19.77
2018-11-06T08:12:10.621Z,18.60
2018-11-06T08:14:38.862Z,18.03
2018-11-06T08:17:07.320Z,18.37
2018-11-06T08:19:35.479Z,17.30
2018-11-06T08:22:03.746Z,19.30
2018-11-06T08:24:31.894Z,18.53
2018-11-06T08:27:00.112Z,19.43
2018-11-06T08:29:28.345Z,19.67
2018-11-06T08:31:57.047Z,18.47
2018-11-06T08:34:24.849Z,17.90
2018-11-06T08:36:53.092Z,18.33
2018-11-06T08:39:21.843Z,19.63
2018-11-06T08:41:50.043Z,20.80
2018-11-06T08:44:18.199Z,18.50
2018-11-06T08:46:46.344Z,21.30
2018-11-06T08:49:14.473Z,17.77
2018-11-06T08:51:42.643Z,18.37
2018-11-06T08:54:10.795Z,18.20
2018-11-06T08:56:39.009Z,20.20
2018-11-06T08:59:07.465Z,18.53
2018-11-06T09:01:35.626Z,20.33
2018-11-06T09:04:03.822Z,18.93
2018-11-06T09:06:31.991Z,19.10
2018-11-06T09:09:00.145Z,19.40
2018-11-06T09:11:28.314Z,17.60
2018-11-06T09:13:56.410Z,18.67
2018-11-06T09:16:24.555Z,19.77
2018-11-06T09:18:53.414Z,17.20
2018-11-06T09:21:21.581Z,17.30
2018-11-06T09:23:49.741Z,18.40
2018-11-06T09:26:17.927Z,17.57
2018-11-06T09:28:46.042Z,20.63
2018-11-06T09:31:14.220Z,19.80
2018-11-06T09:33:42.401Z,17.10
2018-11-06T09:36:10.569Z,18.93
2018-11-06T09:38:38.741Z,18.10
2018-11-06T09:41:06.909Z,18.50
2018-11-06T09:43:35.216Z,16.93
2018-11-06T09:46:03.383Z,17.30
2018-11-06T09:48:31.511Z,18.80
2018-11-06T09:50:59.653Z,17.33
2018-11-06T09:53:28.332Z,18.03
2018-11-06T09:55:56.445Z,18.17
2018-11-06T09:58:24.593Z,17.53
2018-11-06T10:00:52.744Z,21.07
2018-11-06T10:03:20.852Z,17.87
2018-11-06T10:05:49.133Z,18.50
2018-11-06T10:08:17.285Z,16.90
2018-11-06T10:10:45.441Z,16.90
2018-11-06T10:13:13.620Z,16.40
2018-11-06T10:15:41.843Z,16.33
2018-11-06T10:18:09.973Z,16.63
2018-11-06T10:20:38.133Z,17.37
2018-11-06T10:23:06.281Z,17.50
2018-11-06T10:25:34.485Z,17.73
2018-11-06T10:28:02.635Z,17.60
2018-11-06T10:30:30.803Z,15.47
2018-11-06T10:32:58.967Z,18.00
2018-11-06T10:35:27.171Z,16.13
2018-11-06T10:37:55.370Z,18.80
2018-11-06T10:40:23.619Z,16.60
2018-11-06T10:42:52.016Z,17.30
2018-11-06T10:45:20.487Z,15.50
2018-11-06T10:47:49.229Z,21.70
2018-11-06T10:50:18.435Z,21.13
2018-11-06T10:52:47.295Z,17.43
2018-11-06T10:55:15.488Z,16.73
2018-11-06T10:57:43.855Z,16.00
2018-11-06T11:00:18.547Z,16.23
2018-11-06T11:02:52.069Z,19.80
2018-11-06T11:05:21.757Z,16.57
2018-11-06T11:07:49.959Z,15.63
2018-11-06T11:10:18.087Z,16.37
2018-11-06T11:12:46.935Z,16.07
2018-11-06T11:15:15.081Z,15.90
2018-11-06T11:17:43.239Z,19.93
2018-11-06T11:20:12.926Z,16.93
2018-11-06T11:22:41.293Z,15.80
2018-11-06T11:25:11.315Z,17.83
2018-11-06T11:27:39.437Z,16.00
2018-11-06T11:30:09.431Z,16.87
2018-11-06T11:32:37.578Z,15.30
2018-11-06T11:35:06.259Z,16.03
2018-11-06T11:37:34.357Z,16.10
2018-11-06T11:40:02.447Z,16.63
2018-11-06T11:42:30.565Z,14.67
2018-11-06T11:44:58.683Z,15.10
2018-11-06T11:47:26.827Z,15.03
2018-11-06T11:49:54.950Z,15.97
2018-11-06T11:52:23.115Z,15.10
2018-11-06T11:54:51.420Z,17.07
2018-11-06T11:57:19.608Z,15.00
2018-11-06T11:59:47.763Z,14.80
2018-11-06T12:02:16.025Z,14.93
2018-11-06T12:04:44.138Z,14.53
2018-11-06T12:07:12.283Z,13.90
2018-11-06T12:09:40.427Z,14.40
2018-11-06T12:12:08.593Z,14.83
2018-11-06T12:14:36.694Z,14.30
2018-11-06T12:17:04.846Z,14.20
2018-11-06T12:19:32.995Z,14.93
2018-11-06T12:22:01.204Z,14.93
2018-11-06T12:24:29.521Z,12.77
2018-11-06T12:26:57.676Z,14.30
2018-11-06T12:29:25.795Z,12.93
2018-11-06T12:31:53.935Z,14.53
2018-11-06T12:34:22.065Z,13.57
2018-11-06T12:36:50.228Z,13.33
2018-11-06T12:39:18.391Z,13.80
2018-11-06T12:41:46.543Z,14.30
2018-11-06T12:44:14.673Z,14.70
2018-11-06T12:46:42.870Z,15.40
2018-11-06T12:49:11.043Z,14.13
2018-11-06T12:51:39.218Z,13.83
2018-11-06T12:54:07.353Z,13.93
2018-11-06T12:56:36.009Z,14.53
2018-11-06T12:59:04.260Z,13.63
2018-11-06T13:01:32.452Z,13.60
2018-11-06T13:04:00.578Z,13.13
2018-11-06T13:06:28.768Z,14.17
2018-11-06T13:08:56.910Z,14.30
2018-11-06T13:11:25.076Z,13.77
2018-11-06T13:13:53.192Z,13.30
2018-11-06T13:16:21.401Z,13.80
2018-11-06T13:18:49.551Z,14.73
2018-11-06T13:21:17.676Z,14.27
2018-11-06T13:23:45.766Z,13.77
2018-11-06T13:26:13.981Z,14.90
2018-11-06T13:28:42.641Z,12.97
2018-11-06T13:31:11.004Z,33.43
2018-11-06T13:33:39.947Z,15.80
2018-11-06T13:36:08.311Z,14.63
2018-11-06T13:38:36.482Z,14.47
2018-11-06T13:41:04.958Z,16.40
2018-11-06T13:43:33.296Z,13.80
2018-11-06T13:46:01.317Z,14.40
2018-11-06T13:48:29.440Z,14.00
2018-11-06T13:50:57.570Z,13.97
2018-11-06T13:53:25.701Z,14.23
2018-11-06T13:55:53.838Z,14.67
2018-11-06T13:58:21.962Z,14.30
2018-11-06T14:00:50.130Z,15.37
2018-11-06T14:03:18.582Z,15.20
2018-11-06T14:05:46.772Z,14.13
2018-11-06T14:08:14.983Z,14.27
2018-11-06T14:10:43.100Z,15.07
2018-11-06T14:13:11.279Z,16.00
2018-11-06T14:15:39.520Z,14.67
2018-11-06T14:18:07.736Z,14.57
2018-11-06T14:20:35.946Z,14.93
2018-11-06T14:23:04.124Z,17.47
2018-11-06T14:25:32.274Z,15.03
2018-11-06T14:28:00.472Z,15.90
2018-11-06T14:30:28.624Z,15.67
2018-11-06T14:32:56.914Z,14.43
2018-11-06T14:35:25.123Z,16.17
2018-11-06T14:37:54.050Z,15.77
2018-11-06T14:40:22.224Z,15.93
2018-11-06T14:42:50.384Z,15.60
2018-11-06T14:45:19.283Z,15.73
2018-11-06T14:47:47.479Z,15.77
2018-11-06T14:50:15.716Z,16.47
2018-11-06T14:52:43.850Z,15.90
2018-11-06T14:55:14.196Z,16.43
2018-11-06T14:57:42.462Z,14.10
2018-11-06T15:00:16.801Z,15.70
2018-11-06T15:02:46.420Z,17.53
2018-11-06T15:05:15.130Z,15.63
2018-11-06T15:07:43.847Z,16.97
2018-11-06T15:10:12.884Z,17.00
2018-11-06T15:12:41.372Z,15.83
2018-11-06T15:15:10.638Z,15.93
2018-11-06T15:17:40.478Z,16.77
2018-11-06T15:20:10.839Z,17.10
2018-11-06T15:22:39.360Z,16.43
2018-11-06T15:25:08.466Z,16.77
2018-11-06T15:27:36.643Z,17.50
2018-11-06T15:30:05.608Z,16.50
2018-11-06T15:32:33.751Z,16.80
2018-11-06T15:35:01.900Z,16.27
2018-11-06T15:37:30.091Z,15.23
2018-11-06T15:39:58.360Z,14.90
2018-11-06T15:42:26.544Z,16.37
2018-11-06T15:44:54.690Z,16.77
2018-11-06T15:47:22.896Z,15.50
2018-11-06T15:49:51.092Z,16.00
2018-11-06T15:52:19.359Z,16.80
2018-11-06T15:54:47.527Z,16.03
2018-11-06T15:57:15.713Z,19.10
2018-11-06T15:59:43.869Z,18.10
2018-11-06T16:02:11.989Z,17.20
2018-11-06T16:04:40.150Z,18.77
2018-11-06T16:07:08.414Z,18.30
2018-11-06T16:09:36.557Z,17.43
2018-11-06T16:12:05.614Z,16.53
2018-11-06T16:14:33.809Z,16.77
2018-11-06T16:17:01.984Z,18.10
2018-11-06T16:19:30.131Z,16.83
2018-11-06T16:21:58.264Z,17.03
2018-11-06T16:24:26.384Z,16.63
2018-11-06T16:26:54.549Z,17.50
2018-11-06T16:29:22.686Z,17.90
2018-11-06T16:31:50.787Z,18.37
2018-11-06T16:34:19.038Z,18.23
2018-11-06T16:36:47.658Z,18.00
2018-11-06T16:39:16.154Z,17.77
2018-11-06T16:41:44.641Z,19.03
2018-11-06T16:44:13.065Z,17.33
2018-11-06T16:46:41.552Z,16.00
2018-11-06T16:49:09.820Z,18.13
2018-11-06T16:51:39.373Z,18.10
2018-11-06T16:54:07.704Z,17.70
2018-11-06T16:56:36.253Z,17.40
2018-11-06T16:59:05.336Z,17.23
2018-11-06T17:01:33.748Z,16.33
2018-11-06T17:04:03.259Z,18.40
2018-11-06T17:06:39.804Z,16.23
2018-11-06T17:09:08.930Z,17.67
2018-11-06T17:11:37.584Z,16.87
2018-11-06T17:14:06.325Z,18.00
2018-11-06T17:16:34.685Z,17.87
2018-11-06T17:19:02.855Z,17.30
2018-11-06T17:21:31.011Z,17.60
2018-11-06T17:23:59.198Z,20.80
2018-11-06T17:26:27.390Z,19.30
2018-11-06T17:28:55.607Z,19.37
2018-11-06T17:31:23.736Z,18.80
2018-11-06T17:33:51.904Z,20.97
2018-11-06T17:36:20.080Z,19.67
2018-11-06T17:38:48.326Z,19.40
2018-11-06T17:41:16.454Z,19.13
2018-11-06T17:43:44.602Z,19.27
2018-11-06T17:46:12.806Z,18.63
2018-11-06T17:48:41.012Z,18.87
2018-11-06T17:51:09.151Z,18.63
2018-11-06T17:53:37.364Z,18.90
2018-11-06T17:56:05.862Z,17.97
2018-11-06T17:58:34.080Z,20.57
2018-11-06T18:01:02.288Z,18.43
2018-11-06T18:03:30.637Z,20.00
2018-11-06T18:05:59.564Z,21.10
2018-11-06T18:08:27.834Z,20.00
2018-11-06T18:10:55.954Z,18.87
2018-11-06T18:13:24.494Z,18.50
2018-11-06T18:15:52.622Z,24.53
2018-11-06T18:18:20.978Z,20.50
2018-11-06T18:20:49.311Z,24.70
2018-11-06T18:23:17.549Z,22.93
2018-11-06T18:25:45.994Z,21.40
2018-11-06T18:28:14.085Z,22.03
2018-11-06T18:30:42.298Z,20.63
2018-11-06T18:33:10.584Z,23.63
2018-11-06T18:35:38.739Z,18.70
2018-11-06T18:38:07.841Z,25.93
2018-11-06T18:40:37.251Z,24.43
2018-11-06T18:43:05.583Z,28.97
2018-11-06T18:45:33.816Z,29.33
2018-11-06T18:48:02.008Z,24.93
2018-11-06T18:50:30.175Z,21.97
2018-11-06T18:52:58.400Z,23.20
2018-11-06T18:55:26.584Z,25.90
2018-11-06T18:57:54.859Z,25.00
2018-11-06T19:00:23.713Z,20.70
2018-11-06T19:02:52.960Z,21.10
2018-11-06T19:05:22.164Z,28.50
2018-11-06T19:07:50.349Z,26.33
2018-11-06T19:10:18.796Z,21.73
2018-11-06T19:12:47.149Z,19.10
2018-11-06T19:15:17.708Z,21.07
2018-11-06T19:17:46.568Z,20.73
2018-11-06T19:20:15.301Z,20.57
2018-11-06T19:22:43.639Z,20.10
2018-11-06T19:25:12.576Z,24.33
2018-11-06T19:27:40.901Z,31.00
2018-11-06T19:30:11.582Z,23.20
2018-11-06T19:32:40.121Z,24.50
2018-11-06T19:35:08.676Z,21.90
2018-11-06T19:37:37.003Z,25.13
2018-11-06T19:40:07.118Z,25.20
2018-11-06T19:42:35.525Z,26.53
2018-11-06T19:45:03.978Z,21.07
2018-11-06T19:47:33.063Z,22.00
2018-11-06T19:50:01.425Z,23.97
2018-11-06T19:52:29.639Z,19.53
2018-11-06T19:54:57.949Z,19.50
2018-11-06T19:57:26.180Z,20.33
2018-11-06T19:59:54.388Z,21.47
2018-11-06T20:02:22.612Z,19.87
2018-11-06T20:04:50.861Z,22.20
2018-11-06T20:07:19.116Z,20.30
2018-11-06T20:09:47.380Z,20.63
2018-11-06T20:12:15.551Z,19.53
2018-11-06T20:14:43.939Z,20.40
2018-11-06T20:17:12.184Z,20.60
2018-11-06T20:19:40.550Z,19.57
2018-11-06T20:22:08.874Z,20.23
2018-11-06T20:24:38.224Z,20.50
2018-11-06T20:27:06.469Z,20.03
2018-11-06T20:29:34.674Z,20.77
2018-11-06T20:32:02.927Z,41.33
2018-11-06T20:34:31.096Z,19.00
2018-11-06T20:36:59.313Z,20.13
2018-11-06T20:39:27.664Z,20.83
2018-11-06T20:41:55.962Z,21.93
2018-11-06T20:44:24.215Z,23.20
2018-11-06T20:46:52.392Z,22.60
2018-11-06T20:49:20.633Z,21.37
2018-11-06T20:51:48.871Z,22.00
2018-11-06T20:54:17.140Z,25.77
2018-11-06T20:56:46.483Z,21.10
2018-11-06T20:59:14.683Z,20.20
2018-11-06T21:01:42.908Z,21.47
2018-11-06T21:04:11.351Z,20.90
2018-11-06T21:06:39.859Z,21.17
2018-11-06T21:09:09.620Z,21.13
2018-11-06T21:11:38.272Z,21.40
2018-11-06T21:14:06.497Z,21.07
2018-11-06T21:16:34.777Z,21.00
2018-11-06T21:19:03.024Z,22.03
2018-11-06T21:21:31.383Z,20.33
2018-11-06T21:23:59.535Z,20.73
2018-11-06T21:26:28.788Z,22.30
2018-11-06T21:28:57.038Z,21.60
2018-11-06T21:31:25.271Z,22.90
2018-11-06T21:33:54.285Z,23.57
2018-11-06T21:36:22.519Z,22.57
2018-11-06T21:38:52.703Z,22.30
2018-11-06T21:41:20.894Z,20.87
2018-11-06T21:43:49.602Z,22.53
2018-11-06T21:46:17.762Z,21.10
2018-11-06T21:48:45.898Z,21.30
2018-11-06T21:51:14.229Z,20.03
2018-11-06T21:53:42.487Z,21.90
2018-11-06T21:56:10.701Z,20.77
2018-11-06T21:58:38.940Z,20.83
2018-11-06T22:01:07.192Z,21.07
2018-11-06T22:03:35.409Z,21.40
2018-11-06T22:06:03.825Z,20.57
2018-11-06T22:08:32.039Z,21.40
2018-11-06T22:11:00.367Z,20.63
2018-11-06T22:13:28.919Z,24.83
2018-11-06T22:15:57.801Z,19.93
2018-11-06T22:18:26.021Z,20.77
2018-11-06T22:20:54.215Z,21.33
2018-11-06T22:23:22.399Z,20.57
2018-11-06T22:25:50.665Z,22.93
2018-11-06T22:28:18.871Z,20.80
2018-11-06T22:30:47.083Z,21.77
2018-11-06T22:33:15.537Z,20.30
2018-11-06T22:35:43.649Z,20.00
2018-11-06T22:38:11.937Z,21.50
2018-11-06T22:40:40.034Z,21.57
2018-11-06T22:43:08.269Z,19.03
2018-11-06T22:45:36.462Z,20.27
2018-11-06T22:48:04.793Z,19.80
2018-11-06T22:50:32.929Z,21.00
2018-11-06T22:53:01.198Z,19.53
2018-11-06T22:55:29.490Z,20.13
2018-11-06T22:57:58.352Z,20.63
2018-11-06T23:00:31.980Z,21.93
2018-11-06T23:03:00.207Z,19.20
2018-11-06T23:05:28.404Z,18.93
2018-11-06T23:08:02.092Z,20.47
2018-11-06T23:10:31.238Z,18.60
2018-11-06T23:12:59.510Z,19.80
2018-11-06T23:15:27.668Z,20.73
2018-11-06T23:17:56.001Z,18.67
2018-11-06T23:20:24.275Z,21.20
2018-11-06T23:22:52.496Z,19.73
2018-11-06T23:25:20.715Z,19.10
2018-11-06T23:27:48.918Z,18.87
2018-11-06T23:30:18.047Z,28.03
2018-11-06T23:32:47.443Z,19.50
2018-11-06T23:35:15.691Z,20.60
2018-11-06T23:37:43.852Z,20.20
2018-11-06T23:40:12.183Z,19.00
2018-11-06T23:42:40.721Z,18.80
2018-11-06T23:45:09.355Z,20.70
2018-11-06T23:47:37.784Z,20.57
2018-11-06T23:50:07.875Z,21.50
2018-11-06T23:52:36.045Z,21.93
2018-11-06T23:55:04.358Z,18.53
2018-11-06T23:57:32.466Z,21.00
